الصفحة الرئيسية
METAR-TAF:

METAR-TAF

مطار :

بورت أوف سبين, ترينيداد, ترينيداد وتوباغو

دائرة عرض: 10-37N, خط طول: 061-21W, ارتفاع: 12 متر

مراقبة الطقس الحالي

تاريخ ووقت الإصدار 39 دقيقة قبل الساعة 14:00UTC
ريح 11 عقدة من الشرق
درجة الحرارة 30°درجة مئوية
الرطوبة 62%
ضغط 1017 hPa
الرؤية 10 كم أو أكثر
غيوم مفككة على ارتفاع 2000 قدم
زخات في الجوار

METAR: TTPP 011400Z 10011KT 9999 VCSH BKN020 30/22 Q1017 NOSIG RMK VCSH NE S

زمن: 10:39 (14:39 UTC)

توقعات

تاريخ ووقت الإصدار 4ساعات و 39 دقيقة قبل الساعة 10:00UTC
التوقعات صالحة من01 الساعة 12 UTC إلى 02 الساعة 12 UTC
ريح 10 عقدة من الشرق/الجنوب الشرقي
الرؤية 10 كم أو أكثر
غيوم متفرقة على ارتفاع 2000 قدم
مؤقت
من 01 الساعة 16 UTC إلى 01 الساعة 20 UTC
غيوم مفككة على ارتفاع 1800 قدم
زخات من المطر
أصبح
من 01 الساعة 23 UTC إلى 02 الساعة 01 UTC
ريح عقدة من الشمال
غيوم قليلة على ارتفاع 1600 قدم

TAF: TTPP 011000Z 0112/0212 11010KT 9999 SCT020 TEMPO 0116/0120 SHRA BKN018 BECMG 0123/0201 00000KT FEW016

أرصاد الطقس والتوقعات من أكثر من 4000 مطار (تقارير الطقس للمطار METAR والتنبؤ بالطقس بالمطارTAF).

المحطات المتاحة هي النقط الصفراء والحمراء على الخريطة.

حرك المؤشر فوق النقطة لمعرفة اسم المحطة.

ثم انقر لمعرفة أرصاد وتوقعات الطقس.

لتغيير الخارطة: اضغط على الأزرار الخضراء مع رمز الصليب الأسود للتكبير. على الزر الأخضر مع شرطة للتصغير، أو على الأسهم الخضراء للخرائط المجاورة.


METAR-TAF: